NUWWHIDBEY ISLAND NAS (AULT FLD)
METARs for airports near NUW, sorted by distance:
N 0 nm 47' KNUW 171453Z 26006KT 10SM SCT015 BKN025 BKN035 10/10 A3001
NE 11 nm 145' KBVS 171535Z 00000KT 10SM FEW009 SCT025 BKN034 11/11 A3001
NW 17 nm 112' KFHR 171453Z 24004KT 10SM OVC055 13/09 A3001
SE 22 nm 141' KAWO 171521Z 14009KT 10SM FEW010 OVC020 10/09 A3003
NW 23 nm 34' KORS 171535Z 00000KT 10SM OVC019 13/10 A2999
N 26 nm 171' KBLI 171521Z 17006KT 10SM SCT011 OVC022 11/10 A2999
SE 30 nm 606' KPAE 171453Z 21004KT 10SM BKN007 BKN014 OVC029 11/09 A3003
SW 32 nm 13' KNOW 171535Z 26006KT 10SM CLR 12/10 A3002
NW 35 nm 64' CYYJ 171500Z 28005KT 250V310 30SM BKN058 13/09 A2999
SW 36 nm 291' KCLM 171453Z VRB04KT 10SM SCT060 BKN075 12/09 A3002
S 51 nm 21' KBFI 171453Z 18005KT 10SM OVC013 12/08 A3003
S 51 nm 444' KPWT 171541Z 25004KT 10SM OVC005 A3003
S 54 nm 32' KRNT 171453Z 16006KT 10SM BKN016 OVC044 11/08 A3003
NW 54 nm 14' CYVR 171500Z 11007KT 15SM -RA OVC025 12/11 A2999
S 55 nm 432' KSEA 171500Z 20006KT 10SM OVC010 10/07 A3003
NW 63 nm 92' CYCD 171500Z 29003KT 250V320 20SM FEW035 FEW100 14/07 A2999
S 65 nm 294' KTIW 171548Z 18006KT 10SM BKN015 OVC070 11/09 A3004
S 70 nm 272' KSHN 171518Z 24004KT 10SM SCT010 BKN110 11/09 A3000
S 73 nm 322' KTCM 171505Z 20003KT 10SM FEW016 SCT022 OVC070 11/08 A3003
S 76 nm 537' KPLU 171535Z 00000KT 10SM SCT017 SCT025 OVC060 11/09 A3005
S 76 nm 301' KGRF 171535Z 13006KT 9SM BKN022 OVC070 12/09 A3001
W 80 nm 194' KUIL 171537Z 26005KT 10SM SCT012 OVC021 12/10 A3005
S 83 nm 207' KOLM 171501Z 18006KT 10SM BKN027 12/09 A3004
SW 97 nm 17' KHQM 171453Z 29008KT 10SM SCT014 SCT022 OVC031 12/10 A3006
TAFs for airports near NUW, sorted by distance:
N 0 nm 47' KNUW TAF KNUW 1715/1815 22008KT 9999 VCSH FEW015 BKN025 BKN035 QNH2996INS
  TEMPO 1715/1719 VRB06KT 8000 -SHRA BR SCT003 BKN010 OVC020
  FM172000 VRB06KT 9999 VCSH FEW015 SCT025 BKN040 BKN150 QNH3000INS
  FM180000 21010G15KT 9999 FEW030 BKN060 BKN150 BKN200 QNH3002INS
  FM181000 23009KT 9999 FEW020 SCT030 SCT200 QNH3002INS TX15/1722Z TN08/1812Z FS30028
N 26 nm 171' KBLI TAF KBLI 171120Z 1712/1812 14004KT P6SM SCT025 BKN040
  FM171400 18007KT P6SM OVC025
  FM172100 17010KT P6SM SCT025 OVC050
  FM180400 17005KT P6SM OVC050
SE 30 nm 606' KPAE TAF KPAE 171120Z 1712/1812 18007KT P6SM VCSH SCT010 BKN030
  TEMPO 1712/1716 -SHRA OVC007
  FM172100 33006KT P6SM BKN030 OVC050
  FM180600 VRB05KT P6SM BKN050
SW 36 nm 291' KCLM TAF KCLM 171120Z 1712/1812 27008KT P6SM OVC060
  FM171600 30012KT P6SM OVC030
  FM172100 32015G24KT P6SM OVC050
  FM180400 28008KT P6SM BKN050
S 51 nm 21' KBFI TAF KBFI 171120Z 1712/1812 18005KT P6SM OVC050
  TEMPO 1712/1716 -SHRA OVC020
  FM172100 22008KT P6SM BKN050
  FM180400 VRB03KT P6SM OVC050
S 51 nm 444' KPWT TAF
  AMD KPWT 171257Z 1713/1812 20004KT P6SM BKN050
  TEMPO 1713/1716 -SHRA OVC003
  FM172000 21009KT P6SM BKN030 BKN050
  FM180400 17006KT P6SM OVC030
  FM180800 VRB03KT P6SM OVC020
S 55 nm 432' KSEA KSEA 171300Z 1713/1818 21006KT P6SM VCSH SCT020 OVC050
  TEMPO 1713/1716 -SHRA OVC010
  FM172000 22010KT P6SM BKN040
  FM180400 20008KT P6SM OVC040
S 73 nm 322' KTCM TAF KTCM 171300Z 1713/1819 19006KT 9999 OVC050 620606 QNH3000INS
  TEMPO 1713/1715 BKN015
  BECMG 1716/1717 21006KT 9999 BKN025 OVC050 620601 QNH3001INS
  BECMG 1720/1721 24010G15KT 9999 VCSH BKN040 610603 QNH3001INS
  BECMG 1723/1724 24010G15KT 9999 NSW BKN050 620603 QNH3001INS
  TEMPO 1800/1803 24012G20KT
  BECMG 1804/1805 22010KT 9999 BKN020 620603 QNH3004INS TX18/1721Z TN09/1809Z
S 76 nm 301' KGRF TAF KGRF 171300Z 1713/1819 13006KT 8000 BR SCT008 BKN012 OVC090 QNH2997INS
  BECMG 1715/1716 22006KT 9999 NSW BKN020 QNH2999INS
  BECMG 1718/1719 24009KT 9999 BKN030 QNH2999INS
  TEMPO 1722/1804 25012G20KT
  BECMG 1805/1806 13006KT 9999 BKN015 OVC045 QNH3003INS
  BECMG 1816/1817 24006KT 9999 OVC020 QNH3006INS TX19/1722Z TN08/1713Z
S 83 nm 207' KOLM TAF KOLM 171120Z 1712/1812 VRB05KT P6SM SCT040 BKN060
  FM171500 21008KT P6SM OVC025
  FM171900 23011KT P6SM SCT030 OVC050
  FM180300 23006KT P6SM BKN050
  FM180700 VRB04KT P6SM OVC030
SW 97 nm 17' KHQM TAF KHQM 171120Z 1712/1812 30008KT P6SM OVC025
  FM172100 26015G24KT P6SM SCT025 OVC035
  FM180400 27007KT P6SM OVC025

Shortcut to this page: http://wxbay.com.

Data may contain errors.